createdAt,value
2023-03-21T00:00:17.257Z,9.50
2023-03-21T00:02:43.760Z,8.98
2023-03-21T00:05:15.831Z,9.35
2023-03-21T00:07:42.783Z,8.95
2023-03-21T00:10:16.509Z,8.70
2023-03-21T00:12:44.713Z,8.52
2023-03-21T00:15:12.943Z,7.95
2023-03-21T00:17:39.887Z,7.75
2023-03-21T00:20:08.026Z,7.57
2023-03-21T00:22:35.786Z,6.88
2023-03-21T00:25:02.628Z,7.15
2023-03-21T00:27:50.021Z,7.20
2023-03-21T00:30:16.269Z,7.47
2023-03-21T00:32:55.248Z,8.20
2023-03-21T00:35:53.661Z,7.50
2023-03-21T00:38:09.146Z,8.05
2023-03-21T00:40:40.807Z,7.72
2023-03-21T00:43:17.523Z,6.70
2023-03-21T00:45:44.629Z,7.13
2023-03-21T00:48:11.169Z,7.30
2023-03-21T00:50:38.955Z,7.65
2023-03-21T00:53:05.892Z,6.95
2023-03-21T00:55:32.893Z,6.82
2023-03-21T00:58:02.124Z,7.80
2023-03-21T01:00:29.302Z,7.22
2023-03-21T01:03:04.448Z,7.30
2023-03-21T01:05:57.385Z,7.72
2023-03-21T01:08:29.513Z,7.03
2023-03-21T01:11:01.075Z,7.70
2023-03-21T01:13:27.495Z,7.10
2023-03-21T01:15:55.447Z,7.03
2023-03-21T01:18:25.432Z,8.13
2023-03-21T01:20:51.997Z,7.10
2023-03-21T01:23:18.492Z,9.00
2023-03-21T01:25:47.381Z,7.80
2023-03-21T01:28:14.145Z,7.63
2023-03-21T01:30:44.622Z,8.07
2023-03-21T01:33:11.197Z,8.27
2023-03-21T01:35:50.189Z,8.18
2023-03-21T01:38:18.232Z,7.70
2023-03-21T01:40:45.877Z,7.65
2023-03-21T01:43:26.572Z,8.18
2023-03-21T01:46:11.608Z,7.18
2023-03-21T01:48:39.979Z,7.47
2023-03-21T01:51:07.359Z,7.93
2023-03-21T01:53:34.921Z,9.57
2023-03-21T01:56:03.007Z,8.35
2023-03-21T01:58:30.100Z,9.45
2023-03-21T02:00:56.935Z,8.88
2023-03-21T02:03:35.255Z,9.18
2023-03-21T02:06:06.621Z,9.05
2023-03-21T02:08:39.552Z,8.43
2023-03-21T02:11:07.599Z,9.00
2023-03-21T02:13:34.190Z,8.90
2023-03-21T02:16:06.744Z,9.77
2023-03-21T02:18:38.320Z,8.73
2023-03-21T02:21:04.756Z,9.93
2023-03-21T02:23:31.179Z,8.68
2023-03-21T02:26:09.970Z,8.77
2023-03-21T02:28:47.368Z,8.98
2023-03-21T02:31:29.261Z,9.07
2023-03-21T02:34:04.850Z,9.52
2023-03-21T02:36:43.667Z,9.00
2023-03-21T02:39:15.969Z,8.65
2023-03-21T02:42:01.335Z,9.05
2023-03-21T02:44:48.071Z,8.82
2023-03-21T02:47:26.786Z,8.75
2023-03-21T02:50:09.473Z,8.68
2023-03-21T02:52:39.490Z,8.75
2023-03-21T02:55:13.817Z,8.43
2023-03-21T02:57:43.751Z,9.27
2023-03-21T03:00:19.517Z,8.77
2023-03-21T03:02:47.564Z,8.90
2023-03-21T03:05:21.592Z,9.00
2023-03-21T03:07:48.518Z,8.98
2023-03-21T03:10:30.790Z,7.75
2023-03-21T03:13:21.701Z,8.18
2023-03-21T03:15:54.487Z,8.02
2023-03-21T03:18:26.898Z,8.73
2023-03-21T03:20:53.309Z,8.18
2023-03-21T03:23:26.048Z,9.18
2023-03-21T03:25:56.439Z,8.85
2023-03-21T03:28:24.909Z,8.88
2023-03-21T03:31:07.580Z,8.70
2023-03-21T03:33:38.104Z,9.18
2023-03-21T03:36:07.049Z,8.27
2023-03-21T03:38:35.116Z,8.27
2023-03-21T03:41:09.676Z,8.23
2023-03-21T03:43:40.729Z,8.77
2023-03-21T03:46:12.933Z,9.30
2023-03-21T03:48:46.844Z,8.80
2023-03-21T03:51:16.965Z,8.35
2023-03-21T03:53:46.482Z,9.18
2023-03-21T03:56:13.873Z,7.75
2023-03-21T03:58:45.682Z,9.02
2023-03-21T04:01:14.494Z,8.10
2023-03-21T04:03:50.273Z,7.82
2023-03-21T04:06:19.190Z,8.15
2023-03-21T04:08:45.638Z,7.97
2023-03-21T04:11:13.966Z,7.80
2023-03-21T04:13:41.228Z,8.23
2023-03-21T04:16:08.704Z,8.38
2023-03-21T04:18:35.335Z,7.97
2023-03-21T04:21:02.147Z,8.05
2023-03-21T04:23:29.329Z,8.15
2023-03-21T04:25:57.320Z,8.27
2023-03-21T04:28:23.996Z,8.77
2023-03-21T04:31:01.407Z,7.85
2023-03-21T04:33:29.925Z,8.63
2023-03-21T04:35:56.518Z,8.90
2023-03-21T04:38:23.799Z,8.90
2023-03-21T04:40:50.270Z,8.20
2023-03-21T04:43:16.794Z,7.78
2023-03-21T04:45:43.479Z,7.90
2023-03-21T04:48:10.454Z,7.53
2023-03-21T04:50:37.336Z,7.45
2023-03-21T04:53:04.033Z,8.02
2023-03-21T04:55:31.842Z,7.88
2023-03-21T04:57:58.606Z,7.20
2023-03-21T05:00:25.803Z,7.40
2023-03-21T05:02:52.304Z,7.00
2023-03-21T05:05:18.768Z,6.95
2023-03-21T05:07:45.243Z,7.95
2023-03-21T05:10:12.313Z,7.00
2023-03-21T05:12:38.844Z,7.45
2023-03-21T05:15:05.656Z,7.13
2023-03-21T05:17:32.111Z,6.90
2023-03-21T05:19:58.579Z,7.53
2023-03-21T05:22:26.859Z,6.97
2023-03-21T05:24:55.445Z,8.23
2023-03-21T05:27:35.108Z,6.80
2023-03-21T05:30:06.801Z,6.50
2023-03-21T05:32:33.506Z,5.97
2023-03-21T05:35:00.055Z,8.98
2023-03-21T05:37:26.803Z,7.30
2023-03-21T05:39:53.278Z,7.03
2023-03-21T05:42:20.743Z,6.00
2023-03-21T05:44:48.228Z,5.93
2023-03-21T05:47:15.475Z,5.57
2023-03-21T05:49:42.326Z,5.93
2023-03-21T05:52:09.012Z,6.72
2023-03-21T05:54:36.077Z,6.18
2023-03-21T05:57:03.152Z,6.43
2023-03-21T05:59:29.715Z,5.63
2023-03-21T06:01:56.340Z,5.72
2023-03-21T06:04:22.953Z,6.05
2023-03-21T06:06:50.932Z,6.35
2023-03-21T06:09:17.482Z,5.20
2023-03-21T06:11:47.005Z,5.47
2023-03-21T06:14:13.417Z,7.10
2023-03-21T06:16:40.032Z,6.65
2023-03-21T06:19:06.542Z,5.30
2023-03-21T06:21:33.046Z,7.00
2023-03-21T06:23:59.491Z,7.78
2023-03-21T06:26:25.984Z,5.70
2023-03-21T06:28:52.908Z,7.88
2023-03-21T06:31:22.621Z,6.15
2023-03-21T06:33:49.604Z,6.95
2023-03-21T06:36:16.121Z,7.03
2023-03-21T06:38:42.536Z,7.03
2023-03-21T06:41:09.538Z,6.80
2023-03-21T06:43:36.104Z,7.03
2023-03-21T06:46:05.816Z,6.22
2023-03-21T06:48:32.378Z,6.93
2023-03-21T06:50:58.953Z,6.57
2023-03-21T06:53:27.471Z,7.28
2023-03-21T06:55:54.564Z,7.25
2023-03-21T06:58:21.732Z,7.45
2023-03-21T07:00:48.233Z,7.95
2023-03-21T07:03:14.971Z,7.80
2023-03-21T07:05:41.602Z,8.02
2023-03-21T07:08:11.407Z,7.97
2023-03-21T07:10:44.927Z,9.10
2023-03-21T07:13:12.111Z,8.73
2023-03-21T07:15:39.109Z,8.07
2023-03-21T07:18:06.003Z,9.05
2023-03-21T07:20:32.555Z,8.77
2023-03-21T07:22:59.112Z,8.80
2023-03-21T07:25:25.607Z,9.48
2023-03-21T07:27:52.223Z,9.52
2023-03-21T07:30:18.996Z,8.68
2023-03-21T07:32:48.889Z,9.75
2023-03-21T07:35:17.057Z,9.68
2023-03-21T07:37:43.814Z,10.25
2023-03-21T07:40:12.428Z,8.52
2023-03-21T07:42:42.432Z,9.82
2023-03-21T07:45:09.438Z,9.07
2023-03-21T07:47:35.954Z,8.55
2023-03-21T07:50:05.764Z,9.40
2023-03-21T07:52:32.256Z,9.60
2023-03-21T07:54:58.793Z,9.88
2023-03-21T07:57:25.293Z,8.88
2023-03-21T07:59:54.891Z,8.32
2023-03-21T08:02:21.613Z,9.13
2023-03-21T08:04:48.158Z,9.77
2023-03-21T08:07:14.787Z,9.93
2023-03-21T08:09:42.872Z,10.18
2023-03-21T08:12:09.425Z,9.20
2023-03-21T08:14:36.903Z,10.15
2023-03-21T08:17:04.088Z,10.10
2023-03-21T08:19:31.117Z,9.55
2023-03-21T08:22:01.227Z,8.88
2023-03-21T08:24:28.471Z,13.65
2023-03-21T08:26:54.961Z,11.10
2023-03-21T08:29:21.878Z,12.13
2023-03-21T08:31:48.536Z,10.48
2023-03-21T08:34:15.449Z,9.48
2023-03-21T08:36:42.087Z,9.75
2023-03-21T08:39:08.583Z,9.25
2023-03-21T08:41:35.870Z,9.43
2023-03-21T08:44:02.709Z,8.82
2023-03-21T08:46:29.769Z,9.60
2023-03-21T08:48:56.287Z,9.88
2023-03-21T08:51:22.712Z,8.07
2023-03-21T08:53:52.796Z,7.90
2023-03-21T08:56:19.318Z,9.88
2023-03-21T08:58:45.826Z,13.75
2023-03-21T09:01:15.996Z,10.32
2023-03-21T09:03:43.345Z,8.77
2023-03-21T09:06:11.025Z,7.82
2023-03-21T09:08:38.110Z,13.85
2023-03-21T09:11:04.656Z,10.07
2023-03-21T09:13:31.186Z,7.25
2023-03-21T09:16:01.340Z,6.90
2023-03-21T09:18:47.122Z,7.90
2023-03-21T09:21:16.923Z,9.48
2023-03-21T09:23:44.967Z,6.90
2023-03-21T09:26:12.622Z,6.50
2023-03-21T09:28:39.319Z,6.20
2023-03-21T09:31:06.635Z,6.55
2023-03-21T09:33:35.363Z,6.35
2023-03-21T09:36:02.122Z,5.90
2023-03-21T09:38:30.592Z,5.38
2023-03-21T09:41:01.001Z,5.57
2023-03-21T09:43:38.212Z,4.95
2023-03-21T09:46:09.124Z,6.13
2023-03-21T09:48:57.866Z,6.05
2023-03-21T09:51:26.222Z,6.90
2023-03-21T09:53:55.386Z,6.22
2023-03-21T09:56:26.131Z,5.40
2023-03-21T09:58:56.342Z,5.10
2023-03-21T10:01:29.891Z,5.10
2023-03-21T10:03:57.067Z,4.75
2023-03-21T10:06:28.796Z,5.32
2023-03-21T10:09:09.311Z,5.13
2023-03-21T10:11:48.781Z,4.82
2023-03-21T10:14:25.686Z,6.22
2023-03-21T10:16:54.298Z,6.05
2023-03-21T10:19:20.954Z,4.75
2023-03-21T10:22:00.840Z,4.88
2023-03-21T10:24:28.662Z,5.18
2023-03-21T10:26:55.925Z,4.60
2023-03-21T10:29:25.433Z,5.90
2023-03-21T10:31:52.916Z,4.85
2023-03-21T10:34:29.454Z,4.40
2023-03-21T10:36:55.918Z,4.85
2023-03-21T10:39:48.775Z,5.10
2023-03-21T10:42:24.873Z,5.05
2023-03-21T10:44:56.557Z,4.80
2023-03-21T10:47:25.767Z,4.50
2023-03-21T10:50:09.947Z,5.35
2023-03-21T10:52:38.373Z,5.55
2023-03-21T10:55:16.669Z,4.45
2023-03-21T10:57:43.313Z,3.85
2023-03-21T11:00:18.820Z,4.30
2023-03-21T11:02:48.296Z,3.70
2023-03-21T11:05:24.149Z,3.97
2023-03-21T11:07:57.266Z,4.10
2023-03-21T11:10:29.369Z,4.75
2023-03-21T11:12:57.058Z,4.07
2023-03-21T11:15:42.424Z,4.13
2023-03-21T11:18:19.859Z,4.30
2023-03-21T11:20:51.251Z,3.58
2023-03-21T11:23:20.418Z,4.05
2023-03-21T11:25:48.857Z,3.78
2023-03-21T11:28:16.781Z,3.80
2023-03-21T11:30:50.838Z,3.63
2023-03-21T11:33:19.011Z,4.00
2023-03-21T11:35:57.800Z,3.50
2023-03-21T11:38:26.600Z,3.30
2023-03-21T11:40:56.665Z,3.80
2023-03-21T11:43:23.646Z,2.97
2023-03-21T11:45:58.149Z,4.03
2023-03-21T11:48:24.945Z,4.85
2023-03-21T11:50:56.457Z,3.42
2023-03-21T11:53:42.669Z,4.10
2023-03-21T11:56:16.064Z,3.67
2023-03-21T12:01:10.519Z,3.35
2023-03-21T12:03:49.097Z,3.58
2023-03-21T12:06:24.735Z,3.65
2023-03-21T12:08:56.487Z,3.45
2023-03-21T12:11:29.087Z,3.30
2023-03-21T12:14:21.471Z,4.00
2023-03-21T12:16:51.007Z,3.80
2023-03-21T12:19:36.355Z,2.88
2023-03-21T12:22:02.824Z,3.10
2023-03-21T12:24:33.240Z,3.47
2023-03-21T12:27:18.632Z,3.63
2023-03-21T12:29:45.078Z,3.08
2023-03-21T12:32:20.692Z,3.22
2023-03-21T12:34:50.128Z,3.00
2023-03-21T12:37:35.644Z,3.90
2023-03-21T12:40:28.475Z,3.42
2023-03-21T12:42:54.905Z,3.22
2023-03-21T12:45:27.460Z,2.90
2023-03-21T12:47:58.171Z,3.75
2023-03-21T12:50:32.857Z,3.20
2023-03-21T12:53:01.609Z,3.72
2023-03-21T12:55:29.623Z,3.38
2023-03-21T12:58:01.878Z,3.20
2023-03-21T13:00:28.442Z,3.35
2023-03-21T13:03:00.103Z,3.38
2023-03-21T13:05:27.670Z,2.80
2023-03-21T13:07:58.386Z,3.65
2023-03-21T13:10:25.189Z,3.22
2023-03-21T13:12:55.684Z,3.15
2023-03-21T13:15:24.256Z,3.20
2023-03-21T13:18:09.766Z,3.42
2023-03-21T13:20:45.558Z,3.50
2023-03-21T13:23:13.578Z,3.00
2023-03-21T13:25:46.274Z,3.67
2023-03-21T13:28:18.078Z,3.47
2023-03-21T13:30:44.704Z,3.22
2023-03-21T13:33:21.455Z,3.63
2023-03-21T13:35:56.335Z,3.05
2023-03-21T13:38:25.524Z,3.17
2023-03-21T13:40:57.163Z,3.05
2023-03-21T13:43:46.956Z,2.95
2023-03-21T13:46:14.582Z,3.38
2023-03-21T13:48:58.909Z,3.38
2023-03-21T13:51:28.887Z,3.22
2023-03-21T13:54:01.409Z,3.63
2023-03-21T13:56:28.069Z,3.13
2023-03-21T13:58:57.611Z,2.80
2023-03-21T14:01:35.007Z,2.92
2023-03-21T14:04:12.695Z,3.03
2023-03-21T14:06:43.055Z,3.22
2023-03-21T14:09:11.185Z,3.05
2023-03-21T14:11:41.945Z,2.97
2023-03-21T14:14:10.867Z,3.40
2023-03-21T14:16:37.712Z,2.58
2023-03-21T14:19:05.386Z,2.90
2023-03-21T14:21:33.566Z,3.65
2023-03-21T14:24:04.984Z,3.13
2023-03-21T14:26:36.158Z,3.42
2023-03-21T14:29:05.526Z,2.85
2023-03-21T14:31:33.905Z,3.03
2023-03-21T14:34:01.970Z,2.33
2023-03-21T14:36:34.616Z,2.38
2023-03-21T14:39:12.310Z,2.70
2023-03-21T14:41:46.931Z,2.40
2023-03-21T14:44:24.625Z,2.88
2023-03-21T14:46:51.821Z,2.90
2023-03-21T14:49:24.587Z,3.55
2023-03-21T14:51:51.830Z,2.28
2023-03-21T14:54:18.615Z,3.03
2023-03-21T14:56:47.729Z,2.90
2023-03-21T14:59:19.612Z,2.83
2023-03-21T15:01:47.306Z,2.67
2023-03-21T15:04:15.430Z,2.90
2023-03-21T15:06:52.707Z,3.03
2023-03-21T15:09:19.813Z,3.03
2023-03-21T15:11:49.355Z,3.33
2023-03-21T15:14:16.410Z,2.95
2023-03-21T15:16:42.953Z,3.58
2023-03-21T15:19:14.229Z,3.45
2023-03-21T15:21:44.436Z,4.18
2023-03-21T15:24:13.953Z,3.90
2023-03-21T15:26:43.753Z,3.00
2023-03-21T15:29:10.737Z,3.38
2023-03-21T15:31:39.245Z,4.22
2023-03-21T15:34:06.283Z,3.75
2023-03-21T15:36:35.662Z,4.05
2023-03-21T15:39:06.544Z,3.85
2023-03-21T15:41:34.586Z,3.95
2023-03-21T15:44:02.869Z,4.00
2023-03-21T15:46:46.409Z,3.70
2023-03-21T15:49:12.894Z,4.32
2023-03-21T15:51:41.509Z,4.00
2023-03-21T15:54:16.354Z,4.30
2023-03-21T15:56:46.029Z,4.32
2023-03-21T15:59:14.692Z,3.45
2023-03-21T16:01:41.229Z,3.60
2023-03-21T16:04:13.322Z,4.05
2023-03-21T16:06:50.456Z,4.07
2023-03-21T16:09:24.614Z,4.25
2023-03-21T16:11:52.487Z,4.13
2023-03-21T16:14:20.120Z,4.22
2023-03-21T16:16:46.775Z,4.38
2023-03-21T16:19:13.686Z,3.83
2023-03-21T16:21:40.733Z,3.80
2023-03-21T16:24:08.747Z,3.88
2023-03-21T16:26:38.115Z,3.72
2023-03-21T16:29:05.646Z,3.75
2023-03-21T16:31:33.569Z,3.78
2023-03-21T16:34:01.689Z,3.67
2023-03-21T16:36:36.642Z,3.63
2023-03-21T16:39:11.829Z,3.33
2023-03-21T16:41:38.243Z,3.60
2023-03-21T16:44:04.764Z,3.50
2023-03-21T16:46:31.448Z,3.50
2023-03-21T16:48:58.653Z,3.65
2023-03-21T16:51:29.392Z,2.80
2023-03-21T16:53:56.318Z,3.33
2023-03-21T16:56:24.874Z,3.50
2023-03-21T16:58:53.395Z,3.42
2023-03-21T17:01:20.651Z,3.72
2023-03-21T17:03:48.054Z,3.58
2023-03-21T17:06:15.677Z,3.42
2023-03-21T17:08:42.148Z,3.20
2023-03-21T17:11:10.471Z,3.53
2023-03-21T17:13:36.933Z,3.25
2023-03-21T17:16:03.640Z,3.53
2023-03-21T17:18:30.068Z,3.30
2023-03-21T17:20:56.530Z,3.97
2023-03-21T17:23:22.989Z,3.47
2023-03-21T17:25:49.489Z,3.67
2023-03-21T17:28:16.496Z,3.65
2023-03-21T17:30:43.365Z,4.07
2023-03-21T17:33:10.324Z,3.90
2023-03-21T17:35:36.848Z,4.07
2023-03-21T17:38:15.607Z,4.03
2023-03-21T17:40:42.135Z,4.70
2023-03-21T17:43:13.407Z,4.47
2023-03-21T17:45:39.829Z,4.70
2023-03-21T17:48:06.357Z,4.80
2023-03-21T17:50:37.538Z,4.10
2023-03-21T17:53:04.228Z,4.53
2023-03-21T17:55:31.131Z,5.03
2023-03-21T17:57:57.587Z,4.40
2023-03-21T18:00:25.578Z,4.50
2023-03-21T18:02:52.430Z,4.60
2023-03-21T18:05:23.597Z,4.70
2023-03-21T18:08:11.214Z,5.03
2023-03-21T18:10:39.074Z,4.07
2023-03-21T18:13:05.776Z,4.30
2023-03-21T18:15:32.891Z,4.80
2023-03-21T18:17:59.435Z,4.40
2023-03-21T18:20:49.892Z,4.40
2023-03-21T18:23:14.688Z,5.82
2023-03-21T18:25:41.832Z,4.57
2023-03-21T18:28:11.952Z,5.35
2023-03-21T18:31:00.225Z,4.93
2023-03-21T18:33:27.259Z,4.70
2023-03-21T18:35:58.674Z,5.70
2023-03-21T18:38:28.904Z,5.47
2023-03-21T18:40:56.240Z,6.00
2023-03-21T18:46:12.714Z,5.40
2023-03-21T18:48:39.490Z,5.90
2023-03-21T18:51:06.181Z,6.80
2023-03-21T18:53:32.686Z,6.40
2023-03-21T18:56:02.124Z,6.07
2023-03-21T18:58:29.510Z,5.88
2023-03-21T19:00:59.080Z,6.85
2023-03-21T19:03:36.640Z,7.50
2023-03-21T19:06:04.950Z,7.55
2023-03-21T19:08:35.361Z,8.95
2023-03-21T19:11:05.921Z,9.23
2023-03-21T19:13:33.131Z,9.50
2023-03-21T19:16:02.458Z,8.88
2023-03-21T19:18:49.922Z,9.23
2023-03-21T19:21:17.214Z,9.82
2023-03-21T19:24:20.774Z,10.05
2023-03-21T19:26:30.997Z,9.93
2023-03-21T19:28:59.785Z,11.43
2023-03-21T19:31:27.005Z,11.05
2023-03-21T19:33:56.887Z,10.40
2023-03-21T19:36:26.394Z,11.50
2023-03-21T19:38:53.352Z,10.85
2023-03-21T19:41:20.490Z,11.18
2023-03-21T19:43:54.336Z,10.95
2023-03-21T19:46:24.842Z,10.82
2023-03-21T19:48:56.548Z,10.85
2023-03-21T19:51:30.011Z,10.18
2023-03-21T19:53:57.923Z,12.05
2023-03-21T19:56:27.281Z,10.07
2023-03-21T19:58:54.918Z,9.70
2023-03-21T20:01:22.022Z,9.95
2023-03-21T20:03:48.650Z,10.45
2023-03-21T20:06:16.424Z,9.90
2023-03-21T20:09:24.722Z,10.48
2023-03-21T20:11:29.694Z,9.20
2023-03-21T20:13:56.492Z,9.48
2023-03-21T20:16:23.500Z,10.10
2023-03-21T20:18:50.578Z,9.88
2023-03-21T20:21:21.477Z,9.52
2023-03-21T20:23:51.020Z,10.23
2023-03-21T20:26:18.554Z,9.93
2023-03-21T20:29:00.236Z,9.50
2023-03-21T20:31:30.955Z,9.65
2023-03-21T20:33:59.243Z,9.27
2023-03-21T20:36:39.268Z,9.63
2023-03-21T20:39:07.130Z,8.95
2023-03-21T20:41:34.091Z,8.50
2023-03-21T20:46:50.742Z,9.55
2023-03-21T20:49:19.678Z,8.13
2023-03-21T20:52:49.265Z,8.55
2023-03-21T20:54:34.907Z,8.15
2023-03-21T20:57:01.912Z,7.82
2023-03-21T20:59:29.259Z,7.50
2023-03-21T21:01:57.647Z,7.70
2023-03-21T21:04:41.286Z,8.75
2023-03-21T21:07:17.640Z,6.97
2023-03-21T21:09:45.611Z,6.82
2023-03-21T21:12:13.927Z,6.22
2023-03-21T21:14:41.290Z,6.22
2023-03-21T21:19:58.064Z,5.47
2023-03-21T21:22:24.700Z,4.93
2023-03-21T21:24:51.415Z,4.82
2023-03-21T21:27:17.963Z,4.63
2023-03-21T21:29:47.775Z,4.55
2023-03-21T21:32:16.903Z,4.07
2023-03-21T21:34:43.438Z,3.80
2023-03-21T21:37:11.019Z,3.92
2023-03-21T21:39:38.678Z,4.63
2023-03-21T21:42:05.596Z,3.63
2023-03-21T21:44:32.109Z,4.10
2023-03-21T21:46:58.641Z,3.92
2023-03-21T21:49:25.204Z,4.40
2023-03-21T21:51:51.649Z,3.75
2023-03-21T21:54:18.390Z,4.00
2023-03-21T21:56:48.456Z,3.83
2023-03-21T21:59:18.544Z,4.18
2023-03-21T22:01:46.716Z,3.97
2023-03-21T22:04:14.500Z,4.25
2023-03-21T22:06:42.283Z,3.80
2023-03-21T22:09:09.534Z,4.10
2023-03-21T22:11:39.075Z,3.80
2023-03-21T22:14:05.585Z,2.97
2023-03-21T22:16:32.118Z,4.25
2023-03-21T22:18:58.651Z,3.00
2023-03-21T22:21:25.313Z,3.40
2023-03-21T22:23:51.788Z,4.57
2023-03-21T22:26:18.332Z,3.22
2023-03-21T22:28:44.922Z,4.07
2023-03-21T22:31:18.484Z,3.05
2023-03-21T22:33:45.461Z,3.58
2023-03-21T22:36:12.000Z,3.55
2023-03-21T22:38:38.628Z,3.35
2023-03-21T22:41:06.557Z,3.33
2023-03-21T22:43:34.405Z,3.08
2023-03-21T22:46:02.213Z,2.90
2023-03-21T22:48:31.713Z,2.90
2023-03-21T22:50:58.794Z,3.03
2023-03-21T22:53:25.598Z,2.70
2023-03-21T22:55:52.025Z,3.17
2023-03-21T22:58:18.519Z,2.60
2023-03-21T23:00:45.033Z,3.00
2023-03-21T23:03:13.044Z,2.67
2023-03-21T23:05:42.816Z,3.20
2023-03-21T23:08:09.571Z,2.40
2023-03-21T23:10:39.851Z,3.03
2023-03-21T23:13:06.473Z,3.10
2023-03-21T23:15:33.142Z,2.88
2023-03-21T23:17:59.695Z,2.90
2023-03-21T23:20:26.297Z,3.15
2023-03-21T23:22:52.830Z,2.63
2023-03-21T23:25:20.655Z,2.65
2023-03-21T23:27:47.422Z,3.75
2023-03-21T23:30:13.932Z,2.47
2023-03-21T23:32:40.446Z,2.70
2023-03-21T23:35:07.316Z,2.90
2023-03-21T23:37:33.925Z,3.95
2023-03-21T23:40:00.516Z,3.33
2023-03-21T23:42:28.379Z,3.15
2023-03-21T23:44:57.783Z,4.05
2023-03-21T23:47:24.225Z,3.90
2023-03-21T23:49:52.833Z,2.92
2023-03-21T23:52:19.366Z,3.83
2023-03-21T23:54:45.878Z,3.63
2023-03-21T23:57:12.429Z,3.60
2023-03-21T23:59:38.922Z,4.00
